createdAt,value
2018-08-09T00:00:29.456Z,966.20
2018-08-09T00:01:29.430Z,966.20
2018-08-09T00:02:29.330Z,966.24
2018-08-09T00:03:29.293Z,966.25
2018-08-09T00:04:29.243Z,966.29
2018-08-09T00:05:29.242Z,966.33
2018-08-09T00:06:29.155Z,966.32
2018-08-09T00:07:29.115Z,966.28
2018-08-09T00:08:29.073Z,966.27
2018-08-09T00:09:29.035Z,966.28
2018-08-09T00:10:29.016Z,966.28
2018-08-09T00:11:28.945Z,966.28
2018-08-09T00:12:28.900Z,966.27
2018-08-09T00:13:28.889Z,966.23
2018-08-09T00:14:28.816Z,966.22
2018-08-09T00:15:28.769Z,966.23
2018-08-09T00:16:28.760Z,966.25
2018-08-09T00:17:28.684Z,966.26
2018-08-09T00:18:28.643Z,966.23
2018-08-09T00:19:28.598Z,966.22
2018-08-09T00:20:28.557Z,966.25
2018-08-09T00:21:28.544Z,966.24
2018-08-09T00:22:28.473Z,966.24
2018-08-09T00:23:28.470Z,966.25
2018-08-09T00:24:28.393Z,966.24
2018-08-09T00:25:28.341Z,966.24
2018-08-09T00:26:28.301Z,966.22
2018-08-09T00:27:28.252Z,966.23
2018-08-09T00:28:28.251Z,966.18
2018-08-09T00:29:28.169Z,966.15
2018-08-09T00:30:28.129Z,966.15
2018-08-09T00:31:28.082Z,966.13
2018-08-09T00:32:28.042Z,966.14
2018-08-09T00:33:28.030Z,966.12
2018-08-09T00:34:27.953Z,966.13
2018-08-09T00:35:27.911Z,966.13
2018-08-09T00:36:27.869Z,966.13
2018-08-09T00:37:27.822Z,966.12
2018-08-09T00:38:27.811Z,966.13
2018-08-09T00:39:27.767Z,966.10
2018-08-09T00:40:27.692Z,966.08
2018-08-09T00:41:27.652Z,966.09
2018-08-09T00:42:27.609Z,966.08
2018-08-09T00:43:27.562Z,966.03
2018-08-09T00:44:27.550Z,966.08
2018-08-09T00:45:27.474Z,966.03
2018-08-09T00:46:27.434Z,966.05
2018-08-09T00:47:27.391Z,966.02
2018-08-09T00:48:27.345Z,966.05
2018-08-09T00:49:27.337Z,966.04
2018-08-09T00:50:27.290Z,966.01
2018-08-09T00:51:27.217Z,965.99
2018-08-09T00:52:27.172Z,965.98
2018-08-09T00:53:27.128Z,965.99
2018-08-09T00:54:27.085Z,966.01
2018-08-09T00:55:27.080Z,966.03
2018-08-09T00:56:26.998Z,966.01
2018-08-09T00:57:26.954Z,966.07
2018-08-09T00:58:26.915Z,966.10
2018-08-09T00:59:26.867Z,966.13
2018-08-09T01:00:26.862Z,966.07
2018-08-09T01:01:26.782Z,966.08
2018-08-09T01:02:26.741Z,966.12
2018-08-09T01:03:26.726Z,966.10
2018-08-09T01:04:26.653Z,966.09
2018-08-09T01:05:26.611Z,966.08
2018-08-09T01:06:26.566Z,966.06
2018-08-09T01:07:26.564Z,966.06
2018-08-09T01:08:26.477Z,966.01
2018-08-09T01:09:26.436Z,966.02
2018-08-09T01:10:26.394Z,966.00
2018-08-09T01:11:26.347Z,965.96
2018-08-09T01:12:26.336Z,965.93
2018-08-09T01:13:26.298Z,965.88
2018-08-09T01:14:26.218Z,965.92
2018-08-09T01:15:26.172Z,965.93
2018-08-09T01:16:26.131Z,965.93
2018-08-09T01:17:26.085Z,965.92
2018-08-09T01:18:26.074Z,965.90
2018-08-09T01:19:25.998Z,965.87
2018-08-09T01:20:25.983Z,965.89
2018-08-09T01:21:25.908Z,965.90
2018-08-09T01:22:25.867Z,965.88
2018-08-09T01:23:25.824Z,965.84
2018-08-09T01:24:25.816Z,965.86
2018-08-09T01:25:25.732Z,965.83
2018-08-09T01:26:25.691Z,965.84
2018-08-09T01:27:25.645Z,965.87
2018-08-09T01:28:25.604Z,965.82
2018-08-09T01:29:25.601Z,965.79
2018-08-09T01:30:25.515Z,965.81
2018-08-09T01:31:25.471Z,965.80
2018-08-09T01:32:25.427Z,965.77
2018-08-09T01:33:25.382Z,965.74
2018-08-09T01:34:25.380Z,965.75
2018-08-09T01:35:25.294Z,965.77
2018-08-09T01:36:25.252Z,965.78
2018-08-09T01:37:25.208Z,965.77
2018-08-09T01:38:25.165Z,965.79
2018-08-09T01:39:25.152Z,965.81
2018-08-09T01:40:25.075Z,965.80
2018-08-09T01:41:25.033Z,965.78
2018-08-09T01:42:24.989Z,965.73
2018-08-09T01:43:24.977Z,965.76
2018-08-09T01:44:24.899Z,965.75
2018-08-09T01:45:24.888Z,965.78
2018-08-09T01:46:24.814Z,965.77
2018-08-09T01:47:24.766Z,965.77
2018-08-09T01:48:24.723Z,965.75
2018-08-09T01:49:24.687Z,965.76
2018-08-09T01:50:24.669Z,965.74
2018-08-09T01:51:24.591Z,965.80
2018-08-09T01:52:24.546Z,965.77
2018-08-09T01:53:24.504Z,965.76
2018-08-09T01:54:24.460Z,965.77
2018-08-09T01:55:24.457Z,965.77
2018-08-09T01:56:24.371Z,965.76
2018-08-09T01:57:24.331Z,965.74
2018-08-09T01:58:24.282Z,965.78
2018-08-09T01:59:24.239Z,965.80
2018-08-09T02:00:24.225Z,965.76
2018-08-09T02:01:24.150Z,965.77
2018-08-09T02:02:24.106Z,965.76
2018-08-09T02:03:24.063Z,965.76
2018-08-09T02:04:24.019Z,965.72
2018-08-09T02:05:24.007Z,965.72
2018-08-09T02:06:23.932Z,965.70
2018-08-09T02:07:23.885Z,965.70
2018-08-09T02:08:23.838Z,965.71
2018-08-09T02:09:23.799Z,965.72
2018-08-09T02:10:23.786Z,965.72
2018-08-09T02:11:23.746Z,965.67
2018-08-09T02:12:23.672Z,965.69
2018-08-09T02:13:23.622Z,965.67
2018-08-09T02:14:23.577Z,965.63
2018-08-09T02:15:23.531Z,965.65
2018-08-09T02:16:23.553Z,965.63
2018-08-09T02:17:23.442Z,965.61
2018-08-09T02:18:23.398Z,965.58
2018-08-09T02:19:23.355Z,965.54
2018-08-09T02:20:23.311Z,965.56
2018-08-09T02:21:23.317Z,965.57
2018-08-09T02:22:23.222Z,965.57
2018-08-09T02:23:23.182Z,965.59
2018-08-09T02:24:23.137Z,965.57
2018-08-09T02:25:23.089Z,965.55
2018-08-09T02:26:23.077Z,965.60
2018-08-09T02:27:22.999Z,965.56
2018-08-09T02:28:22.958Z,965.52
2018-08-09T02:29:22.915Z,965.55
2018-08-09T02:30:22.898Z,965.50
2018-08-09T02:31:22.822Z,965.54
2018-08-09T02:32:22.778Z,965.51
2018-08-09T02:33:22.736Z,965.52
2018-08-09T02:34:22.691Z,965.48
2018-08-09T02:35:22.674Z,965.49
2018-08-09T02:36:22.602Z,965.47
2018-08-09T02:37:22.558Z,965.50
2018-08-09T02:38:22.510Z,965.52
2018-08-09T02:39:22.499Z,965.49
2018-08-09T02:40:22.455Z,965.52
2018-08-09T02:41:22.382Z,965.48
2018-08-09T02:42:22.333Z,965.44
2018-08-09T02:43:22.291Z,965.48
2018-08-09T02:44:22.245Z,965.45
2018-08-09T02:45:22.234Z,965.47
2018-08-09T02:46:22.158Z,965.45
2018-08-09T02:47:22.146Z,965.48
2018-08-09T02:48:22.070Z,965.47
2018-08-09T02:49:22.026Z,965.47
2018-08-09T02:50:22.009Z,965.49
2018-08-09T02:51:21.935Z,965.47
2018-08-09T02:52:21.889Z,965.47
2018-08-09T02:53:21.843Z,965.51
2018-08-09T02:54:21.799Z,965.49
2018-08-09T02:55:21.787Z,965.47
2018-08-09T02:56:21.742Z,965.47
2018-08-09T02:57:21.668Z,965.49
2018-08-09T02:58:21.624Z,965.46
2018-08-09T02:59:21.576Z,965.50
2018-08-09T03:00:21.535Z,965.49
2018-08-09T03:01:21.519Z,965.48
2018-08-09T03:02:21.445Z,965.45
2018-08-09T03:03:21.406Z,965.42
2018-08-09T03:04:21.355Z,965.46
2018-08-09T03:05:21.312Z,965.46
2018-08-09T03:06:21.320Z,965.46
2018-08-09T03:07:21.219Z,965.45
2018-08-09T03:08:21.176Z,965.44
2018-08-09T03:09:21.140Z,965.44
2018-08-09T03:10:21.084Z,965.43
2018-08-09T03:11:21.084Z,965.41
2018-08-09T03:12:21.003Z,965.40
2018-08-09T03:13:20.953Z,965.38
2018-08-09T03:14:20.910Z,965.35
2018-08-09T03:15:20.862Z,965.36
2018-08-09T03:16:20.858Z,965.36
2018-08-09T03:17:20.804Z,965.34
2018-08-09T03:18:20.731Z,965.31
2018-08-09T03:19:20.682Z,965.28
2018-08-09T03:20:20.643Z,965.25
2018-08-09T03:21:20.626Z,965.29
2018-08-09T03:22:20.552Z,965.28
2018-08-09T03:23:20.504Z,965.27
2018-08-09T03:24:20.541Z,965.28
2018-08-09T03:25:20.415Z,965.24
2018-08-09T03:26:20.371Z,965.25
2018-08-09T03:27:20.327Z,965.25
2018-08-09T03:28:20.309Z,965.27
2018-08-09T03:29:20.267Z,965.27
2018-08-09T03:30:20.190Z,965.25
2018-08-09T03:31:20.148Z,965.25
2018-08-09T03:32:20.104Z,965.26
2018-08-09T03:33:20.088Z,965.28
2018-08-09T03:34:20.012Z,965.27
2018-08-09T03:35:19.965Z,965.28
2018-08-09T03:36:19.920Z,965.23
2018-08-09T03:37:19.875Z,965.25
2018-08-09T03:38:19.869Z,965.25
2018-08-09T03:39:19.786Z,965.28
2018-08-09T03:40:19.741Z,965.26
2018-08-09T03:41:19.732Z,965.26
2018-08-09T03:42:19.651Z,965.27
2018-08-09T03:43:19.605Z,965.25
2018-08-09T03:44:19.562Z,965.24
2018-08-09T03:45:19.516Z,965.25
2018-08-09T03:46:19.502Z,965.22
2018-08-09T03:47:19.424Z,965.26
2018-08-09T03:48:19.421Z,965.24
2018-08-09T03:49:19.390Z,965.26
2018-08-09T03:50:19.294Z,965.28
2018-08-09T03:51:19.244Z,965.27
2018-08-09T03:52:19.204Z,965.24
2018-08-09T03:53:19.188Z,965.21
2018-08-09T03:54:19.112Z,965.22
2018-08-09T03:55:19.066Z,965.22
2018-08-09T03:56:19.022Z,965.17
2018-08-09T03:57:19.010Z,965.20
2018-08-09T03:58:18.982Z,965.22
2018-08-09T03:59:18.886Z,965.22
2018-08-09T04:00:18.842Z,965.23
2018-08-09T04:01:18.797Z,965.25
2018-08-09T04:02:18.788Z,965.28
2018-08-09T04:03:18.707Z,965.32
2018-08-09T04:04:18.661Z,965.32
2018-08-09T04:05:18.616Z,965.30
2018-08-09T04:06:18.570Z,965.31
2018-08-09T04:07:18.557Z,965.32
2018-08-09T04:08:18.480Z,965.37
2018-08-09T04:09:18.434Z,965.40
2018-08-09T04:10:18.391Z,965.42
2018-08-09T04:11:18.382Z,965.42
2018-08-09T04:12:18.300Z,965.42
2018-08-09T04:13:18.256Z,965.43
2018-08-09T04:14:18.208Z,965.44
2018-08-09T04:15:18.164Z,965.44
2018-08-09T04:16:18.151Z,965.46
2018-08-09T04:17:18.075Z,965.44
2018-08-09T04:18:18.030Z,965.41
2018-08-09T04:19:17.984Z,965.42
2018-08-09T04:20:17.946Z,965.44
2018-08-09T04:21:17.926Z,965.43
2018-08-09T04:22:17.885Z,965.41
2018-08-09T04:23:17.813Z,965.42
2018-08-09T04:24:17.763Z,965.41
2018-08-09T04:25:17.746Z,965.38
2018-08-09T04:26:17.668Z,965.41
2018-08-09T04:27:17.625Z,965.41
2018-08-09T04:28:17.609Z,965.37
2018-08-09T04:29:17.534Z,965.36
2018-08-09T04:30:17.492Z,965.32
2018-08-09T04:31:17.445Z,965.31
2018-08-09T04:32:17.396Z,965.25
2018-08-09T04:33:17.381Z,965.25
2018-08-09T04:34:17.309Z,965.29
2018-08-09T04:35:17.261Z,965.24
2018-08-09T04:36:17.251Z,965.23
2018-08-09T04:37:17.172Z,965.24
2018-08-09T04:38:17.130Z,965.20
2018-08-09T04:39:17.082Z,965.22
2018-08-09T04:40:17.036Z,965.24
2018-08-09T04:41:17.022Z,965.23
2018-08-09T04:42:16.984Z,965.23
2018-08-09T04:43:16.900Z,965.23
2018-08-09T04:44:16.854Z,965.26
2018-08-09T04:45:16.809Z,965.24
2018-08-09T04:46:16.766Z,965.23
2018-08-09T04:47:16.755Z,965.24
2018-08-09T04:48:16.717Z,965.20
2018-08-09T04:49:16.682Z,965.24
2018-08-09T04:50:16.583Z,965.25
2018-08-09T04:51:16.537Z,965.22
2018-08-09T04:52:16.494Z,965.23
2018-08-09T04:53:16.479Z,965.19
2018-08-09T04:54:16.403Z,965.25
2018-08-09T04:55:16.356Z,965.24
2018-08-09T04:56:16.313Z,965.25
2018-08-09T04:57:16.268Z,965.26
2018-08-09T04:58:16.265Z,965.28
2018-08-09T04:59:16.209Z,965.24
2018-08-09T05:00:16.132Z,965.29
2018-08-09T05:01:16.087Z,965.33
2018-08-09T05:02:16.043Z,965.30
2018-08-09T05:03:15.995Z,965.34
2018-08-09T05:04:15.981Z,965.33
2018-08-09T05:05:15.912Z,965.34
2018-08-09T05:06:15.863Z,965.36
2018-08-09T05:07:15.816Z,965.35
2018-08-09T05:08:15.805Z,965.36
2018-08-09T05:09:15.762Z,965.36
2018-08-09T05:10:15.713Z,965.35
2018-08-09T05:11:15.639Z,965.37
2018-08-09T05:12:15.592Z,965.35
2018-08-09T05:13:15.551Z,965.35
2018-08-09T05:14:15.542Z,965.33
2018-08-09T05:15:15.458Z,965.34
2018-08-09T05:16:15.412Z,965.33
2018-08-09T05:17:15.368Z,965.36
2018-08-09T05:18:15.325Z,965.36
2018-08-09T05:19:15.314Z,965.38
2018-08-09T05:20:15.236Z,965.36
2018-08-09T05:21:15.191Z,965.41
2018-08-09T05:22:15.145Z,965.40
2018-08-09T05:23:15.216Z,965.39
2018-08-09T05:24:15.089Z,965.40
2018-08-09T05:25:15.044Z,965.45
2018-08-09T05:26:14.968Z,965.44
2018-08-09T05:27:14.921Z,965.40
2018-08-09T05:28:14.878Z,965.42
2018-08-09T05:29:14.835Z,965.43
2018-08-09T05:30:14.822Z,965.46
2018-08-09T05:31:14.749Z,965.44
2018-08-09T05:32:14.730Z,965.45
2018-08-09T05:33:14.655Z,965.44
2018-08-09T05:34:14.661Z,965.46
2018-08-09T05:35:14.568Z,965.47
2018-08-09T05:36:14.556Z,965.46
2018-08-09T05:37:14.478Z,965.47
2018-08-09T05:38:14.438Z,965.48
2018-08-09T05:39:14.422Z,965.46
2018-08-09T05:40:14.355Z,965.49
2018-08-09T05:41:14.301Z,965.52
2018-08-09T05:42:14.293Z,965.54
2018-08-09T05:43:14.213Z,965.54
2018-08-09T05:44:14.172Z,965.47
2018-08-09T05:45:14.169Z,965.53
2018-08-09T05:46:14.083Z,965.53
2018-08-09T05:47:14.036Z,965.52
2018-08-09T05:48:13.992Z,965.52
2018-08-09T05:49:13.950Z,965.52
2018-08-09T05:50:13.937Z,965.53
2018-08-09T05:51:13.859Z,965.55
2018-08-09T05:52:13.819Z,965.53
2018-08-09T05:53:13.794Z,965.53
2018-08-09T05:54:13.761Z,965.53
2018-08-09T05:55:13.687Z,965.56
2018-08-09T05:56:13.640Z,965.56
2018-08-09T05:57:13.598Z,965.55
2018-08-09T05:58:13.557Z,965.51
2018-08-09T05:59:13.541Z,965.51
2018-08-09T06:00:13.469Z,965.53
2018-08-09T06:01:13.423Z,965.56
2018-08-09T06:02:13.379Z,965.53
2018-08-09T06:03:13.333Z,965.50
2018-08-09T06:04:13.324Z,965.50
2018-08-09T06:05:13.247Z,965.53
2018-08-09T06:06:13.204Z,965.53
2018-08-09T06:07:13.194Z,965.54
2018-08-09T06:08:13.117Z,965.52
2018-08-09T06:09:13.072Z,965.51
2018-08-09T06:10:13.031Z,965.54
2018-08-09T06:11:12.985Z,965.51
2018-08-09T06:12:12.996Z,965.53
2018-08-09T06:13:12.899Z,965.43
2018-08-09T06:14:12.857Z,965.44
2018-08-09T06:15:12.813Z,965.47
2018-08-09T06:16:12.768Z,965.44
2018-08-09T06:17:12.757Z,965.40
2018-08-09T06:18:12.682Z,965.40
2018-08-09T06:19:12.639Z,965.34
2018-08-09T06:20:12.598Z,965.33
2018-08-09T06:21:12.597Z,965.34
2018-08-09T06:22:12.510Z,965.31
2018-08-09T06:23:12.523Z,965.32
2018-08-09T06:24:12.427Z,965.25
2018-08-09T06:25:12.381Z,965.27
2018-08-09T06:26:12.362Z,965.27
2018-08-09T06:27:12.296Z,965.25
2018-08-09T06:28:12.292Z,965.23
2018-08-09T06:29:12.214Z,965.20
2018-08-09T06:30:12.173Z,965.22
2018-08-09T06:31:12.128Z,965.19
2018-08-09T06:32:12.087Z,965.20
2018-08-09T06:33:12.082Z,965.15
2018-08-09T06:34:11.994Z,965.18
2018-08-09T06:35:11.950Z,965.13
2018-08-09T06:36:11.907Z,965.13
2018-08-09T06:37:11.865Z,965.17
2018-08-09T06:38:11.864Z,965.18
2018-08-09T06:39:11.779Z,965.14
2018-08-09T06:40:11.739Z,965.14
2018-08-09T06:41:11.697Z,965.09
2018-08-09T06:42:11.652Z,965.15
2018-08-09T06:43:11.643Z,965.18
2018-08-09T06:44:11.567Z,965.14
2018-08-09T06:45:11.541Z,965.14
2018-08-09T06:46:11.519Z,965.12
2018-08-09T06:47:11.446Z,965.12
2018-08-09T06:48:11.399Z,965.06
2018-08-09T06:49:11.382Z,965.03
2018-08-09T06:50:11.356Z,964.99
2018-08-09T06:51:11.271Z,965.03
2018-08-09T06:52:11.228Z,965.02
2018-08-09T06:53:11.191Z,965.00
2018-08-09T06:54:11.146Z,965.03
2018-08-09T06:55:11.133Z,964.95
2018-08-09T06:56:11.115Z,964.99
2018-08-09T06:57:11.018Z,964.95
2018-08-09T06:58:11.015Z,964.93
2018-08-09T06:59:10.932Z,964.96
2018-08-09T07:00:10.891Z,964.95
2018-08-09T07:01:10.879Z,964.89
2018-08-09T07:02:10.809Z,964.87
2018-08-09T07:03:10.795Z,964.91
2018-08-09T07:04:10.722Z,964.89
2018-08-09T07:05:10.680Z,964.86
2018-08-09T07:06:10.640Z,964.82
2018-08-09T07:07:10.629Z,964.84
2018-08-09T07:08:10.588Z,964.81
2018-08-09T07:09:10.512Z,964.84
2018-08-09T07:10:10.469Z,964.77
2018-08-09T07:11:10.430Z,964.77
2018-08-09T07:12:10.387Z,964.73
2018-08-09T07:13:10.376Z,964.78
2018-08-09T07:14:10.302Z,964.75
2018-08-09T07:15:10.261Z,964.76
2018-08-09T07:16:10.265Z,964.77
2018-08-09T07:17:10.175Z,964.73
2018-08-09T07:18:10.177Z,964.74
2018-08-09T07:19:10.090Z,964.75
2018-08-09T07:20:10.055Z,964.69
2018-08-09T07:21:10.012Z,964.67
2018-08-09T07:22:09.967Z,964.77
2018-08-09T07:23:09.956Z,964.69
2018-08-09T07:24:09.883Z,964.72
2018-08-09T07:25:09.843Z,964.70
2018-08-09T07:26:09.801Z,964.64
2018-08-09T07:27:09.793Z,964.71
2018-08-09T07:28:09.722Z,964.76
2018-08-09T07:29:09.713Z,964.75
2018-08-09T07:30:09.636Z,964.71
2018-08-09T07:31:09.636Z,964.74
2018-08-09T07:32:09.557Z,964.77
2018-08-09T07:33:09.513Z,964.68
2018-08-09T07:34:09.475Z,964.69
2018-08-09T07:35:09.431Z,964.71
2018-08-09T07:36:09.423Z,964.71
2018-08-09T07:37:09.350Z,964.69
2018-08-09T07:38:09.341Z,964.72
2018-08-09T07:39:09.271Z,964.69
2018-08-09T07:40:09.228Z,964.71
2018-08-09T07:41:09.186Z,964.62
2018-08-09T07:42:09.146Z,964.62
2018-08-09T07:43:09.138Z,964.62
2018-08-09T07:44:09.065Z,964.62
2018-08-09T07:45:09.026Z,964.60
2018-08-09T07:46:08.983Z,964.59
2018-08-09T07:47:08.941Z,964.65
2018-08-09T07:48:08.949Z,964.62
2018-08-09T07:49:08.863Z,964.58
2018-08-09T07:50:08.823Z,964.59
2018-08-09T07:51:08.807Z,964.59
2018-08-09T07:52:08.746Z,964.59
2018-08-09T07:53:08.735Z,964.51
2018-08-09T07:54:08.661Z,964.58
2018-08-09T07:55:08.619Z,964.56
2018-08-09T07:56:08.580Z,964.51
2018-08-09T07:57:08.645Z,964.49
2018-08-09T07:58:08.501Z,964.48
2018-08-09T07:59:08.463Z,964.44
2018-08-09T08:00:08.419Z,964.45
2018-08-09T08:01:08.381Z,964.46
2018-08-09T08:02:08.378Z,964.47
2018-08-09T08:03:08.301Z,964.45
2018-08-09T08:04:08.260Z,964.48
2018-08-09T08:05:08.219Z,964.50
2018-08-09T08:06:08.231Z,964.47
2018-08-09T08:07:08.170Z,964.48
2018-08-09T08:08:08.103Z,964.53
2018-08-09T08:09:08.063Z,964.53
2018-08-09T08:10:08.024Z,964.59
2018-08-09T08:11:08.023Z,964.57
2018-08-09T08:12:07.945Z,964.58
2018-08-09T08:13:07.901Z,964.73
2018-08-09T08:14:07.864Z,964.59
2018-08-09T08:15:07.861Z,964.59
2018-08-09T08:16:07.819Z,964.63
2018-08-09T08:17:07.743Z,964.53
2018-08-09T08:18:07.728Z,964.59
2018-08-09T08:19:07.664Z,964.53
2018-08-09T08:20:07.636Z,964.51
2018-08-09T08:21:07.650Z,964.52
2018-08-09T08:22:07.551Z,964.44
2018-08-09T08:23:07.536Z,964.45
2018-08-09T08:24:07.468Z,964.55
2018-08-09T08:25:07.426Z,964.43
2018-08-09T08:26:07.389Z,964.51
2018-08-09T08:27:07.347Z,964.47
2018-08-09T08:28:07.346Z,964.49
2018-08-09T08:29:07.272Z,964.46
2018-08-09T08:30:07.232Z,964.48
2018-08-09T08:31:07.189Z,964.53
2018-08-09T08:32:07.155Z,964.49
2018-08-09T08:33:07.144Z,964.49
2018-08-09T08:34:07.073Z,964.55
2018-08-09T08:35:07.032Z,964.54
2018-08-09T08:36:07.006Z,964.55
2018-08-09T08:37:06.954Z,964.52
2018-08-09T08:38:06.947Z,964.60
2018-08-09T08:39:06.907Z,964.61
2018-08-09T08:40:06.836Z,964.56
2018-08-09T08:41:06.795Z,964.54
2018-08-09T08:42:06.758Z,964.52
2018-08-09T08:43:06.753Z,964.58
2018-08-09T08:44:06.681Z,964.56
2018-08-09T08:45:06.664Z,964.55
2018-08-09T08:46:06.636Z,964.54
2018-08-09T08:47:06.561Z,964.63
2018-08-09T08:48:06.521Z,964.57
2018-08-09T08:49:06.484Z,964.60
2018-08-09T08:50:06.449Z,964.48
2018-08-09T08:51:06.440Z,964.46
2018-08-09T08:52:06.368Z,964.45
2018-08-09T08:53:06.351Z,964.46
2018-08-09T08:54:06.291Z,964.53
2018-08-09T08:55:06.341Z,964.63
2018-08-09T08:56:06.216Z,964.49
2018-08-09T08:57:06.178Z,964.51
2018-08-09T08:58:06.179Z,964.53
2018-08-09T08:59:06.134Z,964.58
2018-08-09T09:00:06.094Z,964.52
2018-08-09T09:01:06.081Z,964.47
2018-08-09T09:02:05.986Z,964.50
2018-08-09T09:03:05.949Z,964.47
2018-08-09T09:04:05.947Z,964.55
2018-08-09T09:05:05.913Z,964.46
2018-08-09T09:06:05.834Z,964.43
2018-08-09T09:07:05.835Z,964.45
2018-08-09T09:08:05.768Z,964.46
2018-08-09T09:09:05.771Z,964.39
2018-08-09T09:10:05.680Z,964.39
2018-08-09T09:11:05.641Z,964.36
2018-08-09T09:12:05.606Z,964.38
2018-08-09T09:13:05.574Z,964.35
2018-08-09T09:14:05.561Z,964.50
2018-08-09T09:15:05.492Z,964.45
2018-08-09T09:16:05.454Z,964.34
2018-08-09T09:17:05.417Z,964.32
2018-08-09T09:18:05.411Z,964.37
2018-08-09T09:19:05.347Z,964.17
2018-08-09T09:20:05.301Z,964.17
2018-08-09T09:21:05.313Z,964.19
2018-08-09T09:22:05.228Z,964.29
2018-08-09T09:23:05.188Z,964.15
2018-08-09T09:24:05.150Z,964.20
2018-08-09T09:25:05.112Z,964.17
2018-08-09T09:26:05.107Z,964.18
2018-08-09T09:27:05.096Z,964.19
2018-08-09T09:28:04.996Z,964.20
2018-08-09T09:29:04.993Z,964.24
2018-08-09T09:30:04.924Z,964.20
2018-08-09T09:31:04.884Z,964.16
2018-08-09T09:32:04.879Z,964.22
2018-08-09T09:33:04.843Z,964.21
2018-08-09T09:34:04.771Z,964.21
2018-08-09T09:35:04.784Z,964.18
2018-08-09T09:36:04.694Z,964.23
2018-08-09T09:37:04.690Z,964.26
2018-08-09T09:38:04.651Z,964.16
2018-08-09T09:39:04.581Z,964.23
2018-08-09T09:40:04.543Z,964.25
2018-08-09T09:41:04.508Z,964.38
2018-08-09T09:42:04.468Z,964.30
2018-08-09T09:43:04.462Z,964.24
2018-08-09T09:44:04.393Z,964.34
2018-08-09T09:45:04.355Z,964.22
2018-08-09T09:46:04.353Z,964.24
2018-08-09T09:47:04.278Z,964.14
2018-08-09T09:48:04.267Z,964.20
2018-08-09T09:49:04.204Z,964.19
2018-08-09T09:50:04.168Z,964.33
2018-08-09T09:51:04.163Z,964.12
2018-08-09T09:52:04.094Z,964.10
2018-08-09T09:53:04.060Z,964.19
2018-08-09T09:54:04.152Z,964.24
2018-08-09T09:55:03.983Z,964.09
2018-08-09T09:56:03.959Z,964.11
2018-08-09T09:57:03.910Z,964.15
2018-08-09T09:58:03.869Z,963.97
2018-08-09T09:59:03.865Z,964.05
2018-08-09T10:00:03.794Z,963.92
2018-08-09T10:01:03.779Z,964.00
2018-08-09T10:02:03.763Z,963.87
2018-08-09T10:03:03.684Z,963.85
2018-08-09T10:04:03.643Z,963.88
2018-08-09T10:05:03.657Z,963.84
2018-08-09T10:06:03.569Z,963.85
2018-08-09T10:07:03.575Z,963.84
2018-08-09T10:08:03.496Z,963.87
2018-08-09T10:09:03.461Z,964.11
2018-08-09T10:10:03.473Z,963.92
2018-08-09T10:11:03.388Z,963.91
2018-08-09T10:12:03.347Z,963.98
2018-08-09T10:13:03.310Z,963.98
2018-08-09T10:14:03.272Z,963.95
2018-08-09T10:15:03.268Z,963.94
2018-08-09T10:16:03.196Z,963.96
2018-08-09T10:17:03.160Z,964.01
2018-08-09T10:18:03.125Z,963.85
2018-08-09T10:19:03.111Z,963.90
2018-08-09T10:20:03.049Z,963.83
2018-08-09T10:21:03.015Z,963.80
2018-08-09T10:22:02.976Z,963.80
2018-08-09T10:23:02.981Z,963.88
2018-08-09T10:24:02.901Z,963.81
2018-08-09T10:25:02.864Z,963.83
2018-08-09T10:26:02.829Z,963.85
2018-08-09T10:27:02.788Z,963.86
2018-08-09T10:28:02.784Z,963.84
2018-08-09T10:29:02.719Z,963.79
2018-08-09T10:30:02.680Z,963.80
2018-08-09T10:31:02.641Z,963.70
2018-08-09T10:32:02.638Z,963.75
2018-08-09T10:33:02.570Z,963.61
2018-08-09T10:34:02.532Z,963.62
2018-08-09T10:35:02.497Z,963.60
2018-08-09T10:36:02.459Z,963.57
2018-08-09T10:37:02.453Z,963.59
2018-08-09T10:38:02.388Z,963.55
2018-08-09T10:39:02.350Z,963.61
2018-08-09T10:40:02.309Z,963.56
2018-08-09T10:41:02.275Z,963.52
2018-08-09T10:42:02.268Z,963.59
2018-08-09T10:43:02.198Z,963.67
2018-08-09T10:44:02.164Z,963.80
2018-08-09T10:45:02.127Z,963.64
2018-08-09T10:46:02.124Z,963.64
2018-08-09T10:47:02.052Z,963.68
2018-08-09T10:48:02.054Z,963.53
2018-08-09T10:49:02.029Z,963.52
2018-08-09T10:50:01.946Z,963.49
2018-08-09T10:51:01.954Z,963.55
2018-08-09T10:52:01.872Z,963.48
2018-08-09T10:53:01.833Z,963.48
2018-08-09T10:54:01.829Z,963.41
2018-08-09T10:55:01.763Z,963.62
2018-08-09T10:56:01.726Z,963.39
2018-08-09T10:57:01.690Z,963.34
2018-08-09T10:58:01.647Z,963.33
2018-08-09T10:59:01.645Z,963.32
2018-08-09T11:00:01.582Z,963.28
2018-08-09T11:01:01.544Z,963.26
2018-08-09T11:02:01.503Z,963.27
2018-08-09T11:03:01.498Z,963.22
2018-08-09T11:04:01.431Z,963.19
2018-08-09T11:05:01.396Z,963.18
2018-08-09T11:06:01.365Z,963.25
2018-08-09T11:07:01.323Z,963.19
2018-08-09T11:08:01.316Z,963.21
2018-08-09T11:09:01.248Z,963.15
2018-08-09T11:10:01.225Z,963.17
2018-08-09T11:11:01.174Z,963.27
2018-08-09T11:12:01.137Z,963.07
2018-08-09T11:13:01.215Z,963.12
2018-08-09T11:14:01.067Z,963.15
2018-08-09T11:15:01.043Z,963.11
2018-08-09T11:16:00.994Z,963.01
2018-08-09T11:17:00.967Z,962.92
2018-08-09T11:18:00.953Z,962.95
2018-08-09T11:19:00.916Z,962.98
2018-08-09T11:20:00.847Z,962.87
2018-08-09T11:21:00.810Z,962.90
2018-08-09T11:22:00.776Z,962.92
2018-08-09T11:23:00.739Z,963.00
2018-08-09T11:24:00.737Z,963.05
2018-08-09T11:25:00.666Z,962.94
2018-08-09T11:26:00.630Z,962.92
2018-08-09T11:27:00.592Z,962.95
2018-08-09T11:28:00.591Z,962.85
2018-08-09T11:29:00.521Z,962.80
2018-08-09T11:30:00.484Z,962.85
2018-08-09T11:31:00.450Z,962.92
2018-08-09T11:32:00.423Z,962.81
2018-08-09T11:33:00.411Z,962.92
2018-08-09T11:34:00.360Z,962.93
2018-08-09T11:35:00.303Z,962.84
2018-08-09T11:36:00.268Z,962.90
2018-08-09T11:37:00.230Z,962.80
2018-08-09T11:38:00.228Z,962.87
2018-08-09T11:39:00.169Z,962.82
2018-08-09T11:40:00.121Z,962.82
2018-08-09T11:41:00.088Z,962.78
2018-08-09T11:42:00.051Z,962.79
2018-08-09T11:43:00.090Z,962.90
2018-08-09T11:43:59.977Z,962.73
2018-08-09T11:44:59.946Z,962.77
2018-08-09T11:45:59.904Z,962.80
2018-08-09T11:46:59.873Z,962.73
2018-08-09T11:47:59.866Z,962.74
2018-08-09T11:48:59.796Z,962.75
2018-08-09T11:49:59.762Z,962.73
2018-08-09T11:50:59.724Z,962.84
2018-08-09T11:51:59.693Z,962.79
2018-08-09T11:52:59.694Z,962.79
2018-08-09T11:53:59.621Z,962.70
2018-08-09T11:54:59.631Z,962.82
2018-08-09T11:55:59.553Z,962.73
2018-08-09T11:56:59.575Z,962.75
2018-08-09T11:57:59.479Z,962.73
2018-08-09T11:58:59.441Z,962.68
2018-08-09T11:59:59.436Z,962.63
2018-08-09T12:00:59.368Z,962.64
2018-08-09T12:01:59.334Z,962.60
2018-08-09T12:02:59.294Z,962.53
2018-08-09T12:03:59.263Z,962.55
2018-08-09T12:04:59.254Z,962.47
2018-08-09T12:05:59.219Z,962.38
2018-08-09T12:06:59.155Z,962.38
2018-08-09T12:07:59.117Z,962.40
2018-08-09T12:08:59.081Z,962.40
2018-08-09T12:09:59.043Z,962.39
2018-08-09T12:10:59.042Z,962.41
2018-08-09T12:11:58.973Z,962.39
2018-08-09T12:12:58.941Z,962.43
2018-08-09T12:13:58.899Z,962.44
2018-08-09T12:14:58.919Z,962.52
2018-08-09T12:15:58.828Z,962.35
2018-08-09T12:16:58.829Z,962.33
2018-08-09T12:17:58.758Z,962.35
2018-08-09T12:18:58.720Z,962.34
2018-08-09T12:19:58.685Z,962.25
2018-08-09T12:20:58.702Z,962.37
2018-08-09T12:21:58.646Z,962.29
2018-08-09T12:22:58.578Z,962.21
2018-08-09T12:23:58.540Z,962.11
2018-08-09T12:24:58.507Z,962.09
2018-08-09T12:25:58.476Z,962.19
2018-08-09T12:26:58.509Z,962.12
2018-08-09T12:27:58.400Z,962.16